x

Diamond Shoals (41025) Wave Buoy

11:50 - Thu 28th Aug 2014 All times are EDT. -4 hours from GMT.

  • Sig Wave height 4.6ft
  • Swell Direction
  • Peak Period 11s
  • Average Period 6s
  • Wind
    16mph, 20mph gusts
  • Aire Temp 80°f
  • Sea Pressure 1014.8mb
  • Diamond Shoals
  • Diamond Shoals

More Historic Weather Station data

Upgrade to MSW Pro to gain access to the past 30 days of data for over 8000 Wavebouys and Weather Stations around the globe.

Join Pro

Comparision Forecast

View Surf forecast
   
jue 08/28 11:50 4.5ft 11s 6s 16 20 mph 1014.8mb 80f
10:50 5ft 11s 6s 18 20 mph 1014.9mb 79f
9:50 5ft 11s 6s 20 22 mph 1014.6mb 78f
8:50 4.5ft 11s 6s 18 22 mph 1014.5mb 78f
7:50 5ft 12s 6s 18 22 mph 1014.3mb 78f
6:50 5ft 8s 6s 18 20 mph 1013.8mb 78f
5:50 5ft 8s 6s 16 18 mph 1013.2mb 77f
4:50 6ft 10s 7s 16 20 mph 1012.7mb 76f
3:50 6ft 10s 7s 16 20 mph 1012.6mb 76f
2:50 6.5ft 9s 7s 16 20 mph 1012.2mb 76f
1:50 7ft 11s 8s 16 20 mph 1012.5mb 76f
12:50 7ft 11s 7s 16 18 mph 1012.9mb 76f
mié 08/27 11:50 8.5ft 11s 8s 16 20 mph 1012.6mb 76f
10:50 9ft 12s 8s 20 25 mph 1012.4mb 75f
9:50 10ft 13s 8s 20 27 mph 1012.4mb 75f
8:50 10ft 11s 8s 22 29 mph 1012.2mb 75f
7:50 11ft 12s 8s 22 31 mph 1011.9mb 76f
6:50 11ft 14s 8s 25 31 mph 1011.9mb 76f
5:50 11ft 12s 8s 25 31 mph 1011.7mb 77f
4:50 11ft 12s 8s 27 34 mph 1011.5mb 77f
3:50 11ft 12s 7s 27 31 mph 1011.5mb 77f
2:50 11ft 12s 7s 25 31 mph 1011.9mb 78f
12:50 10ft 10s 7s 27 34 mph 1012.3mb 78f
11:50 9.5ft 15s 7s 25 31 mph 1012.9mb 78f
10:50 9ft 8s 7s 25 31 mph 1013.4mb 78f
9:50 8ft 8s 7s 25 29 mph 1013.3mb 79f
8:50 8.5ft 12s 7s 25 31 mph 1013.1mb 79f
7:50 8ft 8s 7s 25 29 mph 1013.2mb 79f
6:50 7.5ft 10s 7s 20 25 mph 1013.1mb 78f
5:50 7ft 11s 6s 22 27 mph 1012.7mb 77f
4:50 8ft 10s 7s 22 27 mph 1012.9mb 77f
3:50 7.5ft 11s 7s 22 27 mph 1013.1mb 77f
2:50 7.5ft 10s 6s 22 29 mph 1013.4mb 77f
1:50 8ft 11s 7s 25 27 mph 1013.9mb 76f
12:50 8ft 10s 7s 20 27 mph 1014.7mb 78f
mar 08/26 11:50 8ft 8s 7s 22 27 mph 1015mb 77f
10:50 7.5ft 11s 6s 20 27 mph 1015.4mb 78f
9:50 8.5ft 13s 7s 22 29 mph 1015.4mb 77f
8:50 7ft 11s 7s 22 27 mph 1015.3mb 77f
7:50 9ft 11s 7s 22 29 mph 1015.4mb 77f
6:50 8.5ft 9s 7s 25 29 mph 1015.3mb 77f
5:50 7.5ft 10s 6s 25 29 mph 1015.6mb 78f
4:50 8ft 11s 7s 25 29 mph 1015.8mb 77f
3:50 8ft 11s 6s 25 29 mph 1016.3mb 77f
2:50 7ft 10s 6s 25 31 mph 1016.3mb 77f
12:50 7.5ft 9s 6s 25 29 mph 1017.1mb 77f
11:50 8ft 10s 6s 22 29 mph 1016.9mb 77f
10:50 7.5ft 10s 7s 22 29 mph 1017mb 77f
9:50 7.5ft 10s 6s 22 27 mph 1016.9mb 77f
8:50 7ft 10s 7s 20 25 mph 1016.9mb 78f
7:50 7ft 9s 6s 18 22 mph 1016.6mb 79f
6:50 8ft 10s 7s 20 25 mph 1016mb 78f
5:50 7.5ft 11s 7s 25 29 mph 1015.4mb 76f
4:50 8ft 10s 7s 22 27 mph 1015.4mb 76f
3:50 7.5ft 10s 7s 18 22 mph 1016mb 74f
2:50 7.5ft 10s 6s 22 25 mph 1016.1mb 73f
1:50 8.5ft 9s 6s 16 22 mph 1016.3mb 74f
12:50 9ft 11s 7s 25 31 mph 1016.1mb 75f
lun 08/25 11:50 8.5ft 11s 6s 25 29 mph 1016mb 76f
10:50 7.5ft 11s 6s 25 29 mph 1016mb 76f
9:50 8ft 10s 7s 25 31 mph 1015.7mb 75f
8:50 7.5ft 10s 6s 25 29 mph 1015.7mb 74f
7:50 9ft 10s 7s 25 31 mph 1015.6mb 76f
6:50 9ft 10s 7s 25 29 mph 1015.3mb 76f
5:50 9ft 10s 7s 27 31 mph 1015.2mb 76f
4:50 9.5ft 10s 7s 27 31 mph 1015.3mb 76f
3:50 10ft 11s 7s 27 34 mph 1015mb 76f
12:50 10.5ft 11s 7s 27 31 mph 1015.8mb 76f
11:50 10ft 11s 7s 27 34 mph 1015.8mb 75f
10:50 10.5ft 11s 8s 18 25 mph 1016mb 76f
9:50 11ft 10s 7s 22 29 mph 1015.1mb 78f
8:50 10.5ft 11s 7s 20 27 mph 1014.7mb 78f
7:50 11ft 11s 7s 27 34 mph 1014.3mb 75f
6:50 10ft 11s 7s 27 34 mph 1014mb 73f
5:50 10ft 10s 7s 31 38 mph 1013.3mb 73f
4:50 10ft 10s 7s 31 38 mph 1013.1mb 74f
3:50 8ft 10s 6s 29 36 mph 1013.5mb 75f
2:50 8.5ft 9s 7s 29 34 mph 1013.8mb 75f
1:50 8.5ft 10s 7s 27 34 mph 1014.4mb 75f
12:50 9ft 10s 7s 27 31 mph 1014.7mb 75f
dom 08/24 11:50 8ft 10s 6s 27 34 mph 1014.5mb 75f
10:50 8.5ft 7s 6s 29 34 mph 1014.3mb 75f
9:50 8ft 9s 7s 29 34 mph 1014.5mb 75f
8:50 8ft 10s 7s 29 34 mph 1014.2mb 75f
7:50 8ft 10s 7s 25 31 mph 1014.1mb 75f
6:50 7.5ft 10s 7s 22 27 mph 1014.5mb 76f
5:50 7ft 10s 6s 22 27 mph 1014.7mb 76f
4:50 6.5ft 7s 6s 27 31 mph 1014.5mb 76f